Terminal Aerodrome Forecast
Issued by NWS Nashville, TN

Home | Current Version | Previous Version | Text Only | Print | Product List | Glossary On
Versions: 1 2 3 4 5 6 7 8 9 10 11 12 13 14 15 16 17 18 19 20 21 22 23 24 25
716
FTUS44 KOHX 221220 AAA
TAFBNA
TAF AMD
KBNA 221220Z 2212/2312 09006KT 5SM -SHRA BR SCT007 OVC030
      TEMPO 2212/2214 2SM -SHRA BR OVC007
     FM221500 13006KT 5SM BR OVC030
     FM221900 15008KT P6SM OVC050
     FM230500 18005KT 5SM BR OVC025
     FM231000 17003KT 3SM BR OVC010=

USA.gov is the U.S. government's official web portal to all federal, state and local government web resources and services.